Darstellungsparameter: Aktuell verwendete Einstellungen:
Skalierung der Graphiken ... ?
xyx+y,   Skalierungsfaktor:      Skalierung: Modus: x, Faktor: 1
Darstellungszeitraum ... ?
Vom - - bis: - -   Zeitraum: 10.11.2008 - 12.11.2008
Min/Max/Avg-Anzeige ... ?
Zeige MMA aktuell
Zeige MMA Monat
Zeige MMA alles
Zeige --A aktuell
Zeige --A Monat
Zeige --A alles
Keine MMA-Anzeige
MMA:
Average (ber die Originaldaten)
MMA-Basis: 17.04.2019 - 19.05.2019
Quicknavigation für Darstellung... ?
Tage:      1T, 2T, 3T, 5T -1T -2T -3T -5T +1T +2T +3T +5T
Wochen: 1W, 2W, 3W -1W -2W -3W +1W +2W +3W
Monate: 1M, 3M, 6M -1M -3M -6M +1M +3M +6M
Jahre:    1J, 3J, 5J, 10J -1J -3J -5J -10J +1J +3J +5J +10J
Nutze für die Darstellung ... ?
Originaldaten oder Mittelwerte auf ...
Stundenbasis Tagesbasis Wochenbasis
Monatsbasis Jahresbasis      Datenbasis: Original-Daten
Darstellen als:
Statistik (Auto) Statistik J:M      Darstellung:
Zur Graphik,    zurück zur Übersicht aller Sensoren.
 
Tabellarische Datenbersicht: ?
 
Sensor: Nr:Datum:Temp:Abs-Feuchte:Windchill:Wind:
Aussen-T/F 1 10-11-2008 00:02:02 12 C 8.95 g/m*3 12 C 0 km/h
2 10-11-2008 00:14:02 12.1 C 8.69 g/m*3 12.1 C 0 km/h
3 10-11-2008 00:26:02 12.3 C 8.58 g/m*3 12.3 C 0 km/h
4 10-11-2008 00:38:02 12.3 C 8.58 g/m*3 12.3 C 0 km/h
5 10-11-2008 00:50:01 12.6 C 8.41 g/m*3 12.6 C 0 km/h
6 10-11-2008 01:02:02 12.9 C 8.34 g/m*3 12.9 C 0 km/h
7 10-11-2008 01:14:02 13 C 8.05 g/m*3 13 C 0 km/h
8 10-11-2008 01:26:01 13 C 7.94 g/m*3 13 C 0 km/h
9 10-11-2008 01:38:02 13 C 7.83 g/m*3 13 C 0 km/h
10 10-11-2008 01:50:02 13.1 C 7.53 g/m*3 13.1 C 0 km/h
11 10-11-2008 02:02:01 13 C 7.48 g/m*3 13 C 0 km/h
12 10-11-2008 02:14:01 13 C 7.48 g/m*3 13 C 0 km/h
13 10-11-2008 02:26:02 12.9 C 7.55 g/m*3 12.9 C 0 km/h
14 10-11-2008 02:38:01 12.5 C 7.81 g/m*3 12.5 C 0 km/h
15 10-11-2008 02:51:05 12 C 7.99 g/m*3 12 C 0 km/h
16 10-11-2008 03:03:05 11.8 C 8.21 g/m*3 11.8 C 0 km/h
17 10-11-2008 03:15:05 11.2 C 8.51 g/m*3 11.2 C 0 km/h
18 10-11-2008 03:27:05 11.1 C 8.66 g/m*3 11.1 C 0 km/h
19 10-11-2008 03:39:02 11.3 C 8.67 g/m*3 11.3 C 0 km/h
20 10-11-2008 03:51:02 11.6 C 8.52 g/m*3 11.6 C 0 km/h
21 10-11-2008 04:03:03 11.8 C 8.31 g/m*3 11.8 C 0 km/h
22 10-11-2008 04:15:02 11.9 C 8.26 g/m*3 11.9 C 0 km/h
23 10-11-2008 04:27:02 12 C 8.21 g/m*3 12 C 0 km/h
24 10-11-2008 04:39:03 12.3 C 8.25 g/m*3 12.3 C 0 km/h
25 10-11-2008 04:51:02 12.5 C 8.14 g/m*3 12.5 C 0 km/h
Sensor: Nr:Datum:Temp:Abs-Feuchte:Windchill:Wind:
Aussen-T/F 26 10-11-2008 05:03:02 12.5 C 8.14 g/m*3 12.5 C 0 km/h
27 10-11-2008 05:15:02 12.6 C 8.08 g/m*3 12.6 C 0 km/h
28 10-11-2008 05:27:02 12.8 C 8.06 g/m*3 12.8 C 0 km/h
29 10-11-2008 05:39:02 12.9 C 8 g/m*3 12.9 C 0 km/h
30 10-11-2008 05:51:01 13 C 7.83 g/m*3 13 C 0 km/h
31 10-11-2008 06:03:02 13 C 7.83 g/m*3 13 C 0 km/h
32 10-11-2008 06:15:02 13 C 7.83 g/m*3 13 C 0 km/h
33 10-11-2008 06:27:02 13 C 7.83 g/m*3 13 C 0 km/h
34 10-11-2008 06:39:02 13.1 C 7.76 g/m*3 13.1 C 0 km/h
35 10-11-2008 06:51:02 13 C 7.71 g/m*3 13 C 0 km/h
36 10-11-2008 07:03:02 13.1 C 7.76 g/m*3 13.1 C 0 km/h
37 10-11-2008 07:15:02 13.3 C 7.74 g/m*3 13.3 C 0 km/h
38 10-11-2008 07:27:02 13.2 C 7.69 g/m*3 13.2 C 0 km/h
39 10-11-2008 07:39:02 13.1 C 7.87 g/m*3 13.1 C 0 km/h
40 10-11-2008 07:51:02 12.8 C 8.18 g/m*3 12.8 C 0 km/h
41 10-11-2008 08:03:03 12.7 C 8.24 g/m*3 12.7 C 0 km/h
42 10-11-2008 08:15:02 13 C 8.28 g/m*3 13 C 0 km/h
43 10-11-2008 08:27:02 13 C 8.28 g/m*3 13 C 0 km/h
44 10-11-2008 08:39:03 12.8 C 8.4 g/m*3 12.8 C 0 km/h
45 10-11-2008 08:51:02 13 C 8.39 g/m*3 13 C 0 km/h
46 10-11-2008 09:03:01 13 C 8.28 g/m*3 13 C 0 km/h
47 10-11-2008 09:15:02 13 C 8.28 g/m*3 13 C 0 km/h
48 10-11-2008 09:27:03 13.2 C 8.27 g/m*3 13.2 C 0 km/h
49 10-11-2008 09:39:01 13.4 C 8.14 g/m*3 13.4 C 0 km/h
50 10-11-2008 09:51:02 13.5 C 8.07 g/m*3 13.5 C 0 km/h
Sensor: Nr:Datum:Temp:Abs-Feuchte:Windchill:Wind:
Aussen-T/F 51 10-11-2008 10:03:01 13.7 C 8.05 g/m*3 13.7 C 0 km/h
52 10-11-2008 10:15:02 13.7 C 7.93 g/m*3 13.7 C 0 km/h
53 10-11-2008 10:27:02 13.7 C 7.93 g/m*3 13.7 C 0 km/h
54 10-11-2008 10:39:01 13.8 C 7.98 g/m*3 13.8 C 0 km/h
55 10-11-2008 10:51:01 14 C 7.96 g/m*3 14 C 0 km/h
56 10-11-2008 11:03:01 14 C 8.08 g/m*3 14 C 0 km/h
57 10-11-2008 11:15:01 13.8 C 8.22 g/m*3 13.8 C 0 km/h
58 10-11-2008 11:27:01 14 C 8.2 g/m*3 14 C 0 km/h
59 10-11-2008 11:39:01 14.2 C 8.06 g/m*3 14.2 C 0 km/h
60 10-11-2008 11:51:01 14.4 C 8.03 g/m*3 14.4 C 0 km/h
61 10-11-2008 12:03:02 14.7 C 7.93 g/m*3 14.7 C 0 km/h
62 10-11-2008 12:15:02 15.2 C 7.92 g/m*3 15.2 C 0 km/h
63 10-11-2008 12:27:02 15 C 7.82 g/m*3 15 C 0 km/h
64 10-11-2008 12:39:02 15.1 C 7.87 g/m*3 15.1 C 0 km/h
65 10-11-2008 12:51:02 14.9 C 7.9 g/m*3 14.9 C 0 km/h
66 10-11-2008 13:03:01 14.9 C 7.77 g/m*3 14.9 C 0 km/h
67 10-11-2008 13:15:02 15 C 7.69 g/m*3 15 C 0 km/h
68 10-11-2008 13:27:02 14.7 C 7.81 g/m*3 14.7 C 0 km/h
69 10-11-2008 13:39:02 14.8 C 7.85 g/m*3 14.8 C 0 km/h
70 10-11-2008 13:51:02 14.9 C 7.77 g/m*3 14.9 C 0 km/h
71 10-11-2008 14:03:02 15.3 C 7.84 g/m*3 15.3 C 0 km/h
72 10-11-2008 14:15:02 15.3 C 7.57 g/m*3 15.3 C 0 km/h
73 10-11-2008 14:27:02 15.1 C 7.74 g/m*3 15.1 C 0 km/h
74 10-11-2008 14:39:02 15 C 7.82 g/m*3 15 C 0 km/h
75 10-11-2008 14:51:02 14.8 C 7.85 g/m*3 14.8 C 0 km/h
Sensor: Nr:Datum:Temp:Abs-Feuchte:Windchill:Wind:
Aussen-T/F 76 10-11-2008 15:03:01 14.8 C 7.73 g/m*3 14.8 C 0 km/h
77 10-11-2008 15:15:02 14.8 C 7.73 g/m*3 14.8 C 0 km/h
78 10-11-2008 15:27:03 14.8 C 7.73 g/m*3 14.8 C 0 km/h
79 10-11-2008 15:39:01 14.9 C 7.77 g/m*3 14.9 C 0 km/h
80 10-11-2008 15:51:03 14.8 C 7.73 g/m*3 14.8 C 0 km/h
81 10-11-2008 16:03:02 14.8 C 7.73 g/m*3 14.8 C 0 km/h
82 10-11-2008 16:15:03 14.8 C 7.73 g/m*3 14.8 C 0 km/h
83 10-11-2008 16:27:03 14.7 C 7.81 g/m*3 14.7 C 0 km/h
84 10-11-2008 16:39:02 14.6 C 7.76 g/m*3 14.6 C 0 km/h
85 10-11-2008 16:51:02 14.5 C 7.84 g/m*3 14.5 C 0 km/h
86 10-11-2008 17:03:02 14.5 C 7.71 g/m*3 14.5 C 0 km/h
87 10-11-2008 17:15:02 14.6 C 7.63 g/m*3 14.6 C 0 km/h
88 10-11-2008 17:27:02 14.7 C 7.55 g/m*3 14.7 C 0 km/h
89 10-11-2008 17:39:02 14.7 C 7.55 g/m*3 14.7 C 0 km/h
90 10-11-2008 17:51:01 14.9 C 7.65 g/m*3 14.9 C 0 km/h
91 10-11-2008 18:03:02 15.1 C 7.48 g/m*3 15.1 C 0 km/h
92 10-11-2008 18:15:01 15.2 C 7.4 g/m*3 15.2 C 0 km/h
93 10-11-2008 18:27:01 15.2 C 7.4 g/m*3 15.2 C 0 km/h
94 10-11-2008 18:39:02 14.9 C 7.39 g/m*3 14.9 C 0 km/h
95 10-11-2008 18:51:02 15.1 C 7.22 g/m*3 15.1 C 0 km/h
96 10-11-2008 19:03:03 15.1 C 7.1 g/m*3 15.1 C 0 km/h
97 10-11-2008 19:15:02 15.2 C 7.14 g/m*3 15.2 C 0 km/h
98 10-11-2008 19:27:02 15 C 7.05 g/m*3 15 C 0 km/h
99 10-11-2008 19:39:03 15.1 C 7.1 g/m*3 15.1 C 0 km/h
100 10-11-2008 19:51:02 15.2 C 7.14 g/m*3 15.2 C 0 km/h
Sensor: Nr:Datum:Temp:Abs-Feuchte:Windchill:Wind:
Aussen-T/F 101 10-11-2008 20:03:02 15.1 C 7.22 g/m*3 15.1 C 0 km/h
102 10-11-2008 20:15:02 15.3 C 7.31 g/m*3 15.3 C 0 km/h
103 10-11-2008 20:27:02 15.3 C 7.31 g/m*3 15.3 C 0 km/h
104 10-11-2008 20:39:02 15.3 C 7.31 g/m*3 15.3 C 0 km/h
105 10-11-2008 20:51:02 15.4 C 7.36 g/m*3 15.4 C 0 km/h
106 10-11-2008 21:03:02 15.5 C 7.53 g/m*3 15.5 C 0 km/h
107 10-11-2008 21:15:02 15.5 C 7.53 g/m*3 15.5 C 0 km/h
108 10-11-2008 21:27:02 15.6 C 7.58 g/m*3 15.6 C 0 km/h
109 10-11-2008 21:39:02 15.4 C 7.75 g/m*3 15.4 C 0 km/h
110 10-11-2008 21:51:01 15.2 C 8.05 g/m*3 15.2 C 0 km/h
111 10-11-2008 22:03:02 15.3 C 7.97 g/m*3 15.3 C 0 km/h
112 10-11-2008 22:15:02 15.2 C 8.05 g/m*3 15.2 C 0 km/h
113 10-11-2008 22:27:02 15.5 C 7.93 g/m*3 15.5 C 0 km/h
114 10-11-2008 22:39:02 15.7 C 7.63 g/m*3 15.7 C 0 km/h
115 10-11-2008 22:52:02 15.8 C 7.67 g/m*3 15.8 C 0 km/h
116 10-11-2008 23:04:02 15.8 C 7.54 g/m*3 15.8 C 0 km/h
117 10-11-2008 23:16:02 15.9 C 7.58 g/m*3 15.9 C 0 km/h
118 10-11-2008 23:28:02 15.8 C 7.54 g/m*3 15.8 C 0 km/h
119 10-11-2008 23:40:02 15.8 C 7.54 g/m*3 15.8 C 0 km/h
120 10-11-2008 23:52:02 16 C 7.49 g/m*3 16 C 0 km/h
121 11-11-2008 00:04:02 16 C 7.49 g/m*3 16 C 0 km/h
122 11-11-2008 00:16:02 16 C 7.49 g/m*3 16 C 0 km/h
123 11-11-2008 00:28:02 15.8 C 7.67 g/m*3 15.8 C 0 km/h
124 11-11-2008 00:40:02 15.9 C 7.58 g/m*3 15.9 C 0 km/h
125 11-11-2008 00:52:02 16 C 7.49 g/m*3 16 C 0 km/h
Sensor: Nr:Datum:Temp:Abs-Feuchte:Windchill:Wind:
Aussen-T/F 126 11-11-2008 01:04:02 16.1 C 7.4 g/m*3 16.1 C 0 km/h
127 11-11-2008 01:16:02 16.1 C 7.4 g/m*3 16.1 C 0 km/h
128 11-11-2008 01:28:02 15.9 C 7.45 g/m*3 15.9 C 0 km/h
129 11-11-2008 01:40:02 15.7 C 7.49 g/m*3 15.7 C 0 km/h
130 11-11-2008 01:52:02 15.7 C 7.49 g/m*3 15.7 C 0 km/h
131 11-11-2008 02:04:02 15.4 C 7.36 g/m*3 15.4 C 0 km/h
132 11-11-2008 02:16:02 15.2 C 7.4 g/m*3 15.2 C 0 km/h
133 11-11-2008 02:28:02 15.2 C 7.4 g/m*3 15.2 C 0 km/h
134 11-11-2008 02:40:03 15.3 C 7.31 g/m*3 15.3 C 0 km/h
135 11-11-2008 02:52:03 15.2 C 7.27 g/m*3 15.2 C 0 km/h
136 11-11-2008 03:04:03 15.3 C 7.18 g/m*3 15.3 C 0 km/h
137 11-11-2008 03:16:03 15.1 C 7.1 g/m*3 15.1 C 0 km/h
138 11-11-2008 03:28:03 14.9 C 7.14 g/m*3 14.9 C 0 km/h
139 11-11-2008 03:40:03 14.7 C 7.05 g/m*3 14.7 C 0 km/h
140 11-11-2008 03:52:03 14.6 C 7.01 g/m*3 14.6 C 0 km/h
141 11-11-2008 04:04:03 14.4 C 6.92 g/m*3 14.4 C 0 km/h
142 11-11-2008 04:16:03 14.1 C 6.92 g/m*3 14.1 C 0 km/h
143 11-11-2008 04:28:03 14.1 C 6.92 g/m*3 14.1 C 0 km/h
144 11-11-2008 04:40:03 14 C 6.88 g/m*3 14 C 0 km/h
145 11-11-2008 04:52:03 13.6 C 6.94 g/m*3 13.6 C 0 km/h
146 11-11-2008 05:04:03 13.4 C 6.86 g/m*3 13.4 C 0 km/h
147 11-11-2008 05:16:03 13.3 C 6.93 g/m*3 13.3 C 0 km/h
148 11-11-2008 05:28:03 13.4 C 6.97 g/m*3 13.4 C 0 km/h
149 11-11-2008 05:40:03 13.5 C 6.9 g/m*3 13.5 C 0 km/h
150 11-11-2008 05:52:03 13.5 C 6.9 g/m*3 13.5 C 0 km/h
Sensor: Nr:Datum:Temp:Abs-Feuchte:Windchill:Wind:
Aussen-T/F 151 11-11-2008 06:04:03 13.4 C 7.09 g/m*3 13.4 C 0 km/h
152 11-11-2008 06:16:03 13.3 C 7.16 g/m*3 13.3 C 0 km/h
153 11-11-2008 06:28:03 13 C 7.37 g/m*3 13 C 0 km/h
154 11-11-2008 06:40:04 12.7 C 7.57 g/m*3 12.7 C 0 km/h
155 11-11-2008 06:52:04 12.2 C 7.66 g/m*3 12.2 C 0 km/h
156 11-11-2008 07:04:02 12 C 8.1 g/m*3 12 C 0 km/h
157 11-11-2008 07:16:02 12 C 8.21 g/m*3 12 C 0 km/h
158 11-11-2008 07:28:02 12.1 C 8.26 g/m*3 12.1 C 0 km/h
159 11-11-2008 07:40:03 13 C 8.17 g/m*3 13 C 0 km/h
160 11-11-2008 07:52:02 13.3 C 8.09 g/m*3 13.3 C 0 km/h
161 11-11-2008 08:04:01 13.2 C 8.04 g/m*3 13.2 C 0 km/h
162 11-11-2008 08:16:02 13.7 C 7.93 g/m*3 13.7 C 0 km/h
163 11-11-2008 08:28:03 14 C 7.72 g/m*3 14 C 0 km/h
164 11-11-2008 08:40:01 13.7 C 7.82 g/m*3 13.7 C 0 km/h
165 11-11-2008 08:52:02 13.8 C 7.98 g/m*3 13.8 C 0 km/h
166 11-11-2008 09:04:01 13.9 C 8.15 g/m*3 13.9 C 0 km/h
167 11-11-2008 09:16:02 13.5 C 8.19 g/m*3 13.5 C 0 km/h
168 11-11-2008 09:28:02 13.5 C 8.42 g/m*3 13.5 C 0 km/h
169 11-11-2008 09:40:01 13.4 C 8.49 g/m*3 13.4 C 0 km/h
170 11-11-2008 09:52:02 13.7 C 8.41 g/m*3 13.7 C 0 km/h
171 11-11-2008 10:04:01 13.8 C 8.22 g/m*3 13.8 C 0 km/h
172 11-11-2008 10:16:02 13.4 C 7.9 g/m*3 13.4 C 0 km/h
173 11-11-2008 10:28:02 13.4 C 7.79 g/m*3 13.4 C 0 km/h
174 11-11-2008 10:40:01 13.4 C 7.56 g/m*3 13.4 C 0 km/h
175 11-11-2008 10:52:02 13.5 C 7.6 g/m*3 13.5 C 0 km/h
Sensor: Nr:Datum:Temp:Abs-Feuchte:Windchill:Wind:
Aussen-T/F 176 11-11-2008 11:04:01 13.2 C 6.54 g/m*3 13.2 C 0 km/h
177 11-11-2008 11:16:02 12 C 6.5 g/m*3 12 C 0 km/h
178 11-11-2008 11:28:02 11.8 C 6.63 g/m*3 11.8 C 0 km/h
179 11-11-2008 11:40:02 11.6 C 6.55 g/m*3 11.6 C 0 km/h
180 11-11-2008 11:52:02 11.8 C 6.31 g/m*3 11.8 C 0 km/h
181 11-11-2008 12:04:01 11.8 C 6.31 g/m*3 11.8 C 0 km/h
182 11-11-2008 12:16:02 12 C 6.07 g/m*3 12 C 0 km/h
183 11-11-2008 12:28:02 12.3 C 5.86 g/m*3 12.3 C 0 km/h
184 11-11-2008 12:40:01 12.7 C 6.01 g/m*3 12.7 C 0 km/h
185 11-11-2008 12:52:01 13.1 C 5.93 g/m*3 13.1 C 0 km/h
186 11-11-2008 13:04:01 13 C 5.56 g/m*3 13 C 0 km/h
187 11-11-2008 13:16:01 12.9 C 5.75 g/m*3 12.9 C 0 km/h
188 11-11-2008 13:28:01 13.4 C 5.23 g/m*3 13.4 C 0 km/h
189 11-11-2008 13:40:01 13.5 C 5.03 g/m*3 13.5 C 0 km/h
190 11-11-2008 13:52:01 14.1 C 4.73 g/m*3 14.1 C 0 km/h
191 11-11-2008 14:04:02 13.8 C 4.89 g/m*3 13.8 C 0 km/h
192 11-11-2008 14:16:01 14.1 C 4.85 g/m*3 14.1 C 0 km/h
193 11-11-2008 14:28:01 14 C 4.95 g/m*3 14 C 0 km/h
194 11-11-2008 14:40:02 13.5 C 4.68 g/m*3 13.5 C 0 km/h
195 11-11-2008 14:52:02 13.1 C 4.56 g/m*3 13.1 C 0 km/h
196 11-11-2008 15:04:02 13 C 4.54 g/m*3 13 C 0 km/h
197 11-11-2008 15:16:02 12.8 C 4.7 g/m*3 12.8 C 0 km/h
198 11-11-2008 15:28:02 12.5 C 4.73 g/m*3 12.5 C 0 km/h
199 11-11-2008 15:40:02 12.2 C 4.96 g/m*3 12.2 C 0 km/h
200 11-11-2008 15:52:02 12.1 C 4.93 g/m*3 12.1 C 0 km/h
Sensor: Nr:Datum:Temp:Abs-Feuchte:Windchill:Wind:
Aussen-T/F 201 11-11-2008 16:04:01 12.1 C 4.93 g/m*3 12.1 C 0 km/h
202 11-11-2008 16:16:02 12.1 C 4.93 g/m*3 12.1 C 0 km/h
203 11-11-2008 16:28:03 12.1 C 5.15 g/m*3 12.1 C 0 km/h
204 11-11-2008 16:40:01 12 C 5.12 g/m*3 12 C 0 km/h
205 11-11-2008 16:52:01 11.9 C 5.08 g/m*3 11.9 C 0 km/h
206 11-11-2008 17:04:02 11.9 C 4.98 g/m*3 11.9 C 0 km/h
207 11-11-2008 17:16:02 11.9 C 4.87 g/m*3 11.9 C 0 km/h
208 11-11-2008 17:28:03 11.9 C 4.87 g/m*3 11.9 C 0 km/h
209 11-11-2008 17:40:01 11.7 C 4.92 g/m*3 11.7 C 0 km/h
210 11-11-2008 17:52:02 11.3 C 4.79 g/m*3 11.3 C 0 km/h
211 11-11-2008 18:04:01 11.1 C 4.83 g/m*3 11.1 C 0 km/h
212 11-11-2008 18:16:02 11.3 C 4.79 g/m*3 11.3 C 0 km/h
213 11-11-2008 18:28:02 11.4 C 4.82 g/m*3 11.4 C 0 km/h
214 11-11-2008 18:40:01 11.1 C 4.83 g/m*3 11.1 C 0 km/h
215 11-11-2008 18:52:01 11.2 C 4.87 g/m*3 11.2 C 0 km/h
216 11-11-2008 19:04:02 11.1 C 4.94 g/m*3 11.1 C 0 km/h
217 11-11-2008 19:16:01 11.1 C 5.04 g/m*3 11.1 C 0 km/h
218 11-11-2008 19:28:01 11.1 C 5.14 g/m*3 11.1 C 0 km/h
219 11-11-2008 19:40:01 11.1 C 5.14 g/m*3 11.1 C 0 km/h
220 11-11-2008 19:52:01 11.1 C 5.24 g/m*3 11.1 C 0 km/h
221 11-11-2008 20:04:02 11.1 C 5.24 g/m*3 11.1 C 0 km/h
222 11-11-2008 20:16:01 11.1 C 5.24 g/m*3 11.1 C 0 km/h
223 11-11-2008 20:28:01 11 C 5.31 g/m*3 11 C 0 km/h
224 11-11-2008 20:40:02 11 C 5.41 g/m*3 11 C 0 km/h
225 11-11-2008 20:52:02 11 C 5.51 g/m*3 11 C 0 km/h
Sensor: Nr:Datum:Temp:Abs-Feuchte:Windchill:Wind:
Aussen-T/F 226 11-11-2008 21:04:02 10.9 C 5.67 g/m*3 10.9 C 0 km/h
227 11-11-2008 21:16:02 10.8 C 5.63 g/m*3 10.8 C 0 km/h
228 11-11-2008 21:28:02 10.8 C 5.73 g/m*3 10.8 C 0 km/h
229 11-11-2008 21:40:02 10.8 C 5.73 g/m*3 10.8 C 0 km/h
230 11-11-2008 21:52:02 10.8 C 5.73 g/m*3 10.8 C 0 km/h
231 11-11-2008 22:04:01 10.7 C 5.8 g/m*3 10.7 C 0 km/h
232 11-11-2008 22:16:02 10.7 C 5.89 g/m*3 10.7 C 0 km/h
233 11-11-2008 22:28:02 9.5 C 6.64 g/m*3 9.5 C 0 km/h
234 11-11-2008 22:40:02 8.9 C 7.1 g/m*3 8.9 C 0 km/h
235 11-11-2008 22:52:02 8.7 C 7.26 g/m*3 8.7 C 0 km/h
236 11-11-2008 23:04:01 8.5 C 7.26 g/m*3 8.5 C 0 km/h
237 11-11-2008 23:16:02 8.4 C 7.21 g/m*3 8.4 C 0 km/h
238 11-11-2008 23:28:02 8.3 C 7.25 g/m*3 8.3 C 0 km/h
239 11-11-2008 23:40:01 8.3 C 7.33 g/m*3 8.3 C 0 km/h
240 11-11-2008 23:52:02 8.3 C 7.33 g/m*3 8.3 C 0 km/h
241 12-11-2008 00:04:02 8.3 C 7.33 g/m*3 8.3 C 0 km/h
242 12-11-2008 00:16:03 8.2 C 7.37 g/m*3 8.2 C 0 km/h
243 12-11-2008 00:28:03 8.1 C 7.32 g/m*3 8.1 C 0 km/h
244 12-11-2008 00:40:02 8.2 C 7.45 g/m*3 8.2 C 0 km/h
245 12-11-2008 00:52:01 8.1 C 7.41 g/m*3 8.1 C 0 km/h
246 12-11-2008 01:04:02 8.3 C 7.5 g/m*3 8.3 C 0 km/h
247 12-11-2008 01:16:01 8.3 C 7.5 g/m*3 8.3 C 0 km/h
248 12-11-2008 01:28:01 8.4 C 7.55 g/m*3 8.4 C 0 km/h
249 12-11-2008 01:40:02 8.5 C 7.51 g/m*3 8.5 C 0 km/h
250 12-11-2008 01:52:02 8.5 C 7.51 g/m*3 8.5 C 0 km/h
Sensor: Nr:Datum:Temp:Abs-Feuchte:Windchill:Wind:
Aussen-T/F 251 12-11-2008 02:04:02 8.2 C 7.2 g/m*3 8.2 C 0 km/h
252 12-11-2008 02:16:02 8.1 C 7.16 g/m*3 8.1 C 0 km/h
253 12-11-2008 02:28:02 8.1 C 7.16 g/m*3 8.1 C 0 km/h
254 12-11-2008 02:40:02 8 C 7.03 g/m*3 8 C 0 km/h
255 12-11-2008 02:53:03 8.1 C 6.99 g/m*3 8.1 C 0 km/h
256 12-11-2008 03:05:04 8 C 6.94 g/m*3 8 C 0 km/h
257 12-11-2008 03:17:03 7.6 C 6.85 g/m*3 7.6 C 0 km/h
258 12-11-2008 03:29:03 7.5 C 6.88 g/m*3 7.5 C 0 km/h
259 12-11-2008 03:41:01 7.3 C 6.79 g/m*3 7.3 C 0 km/h
260 12-11-2008 03:53:01 7.1 C 6.79 g/m*3 7.1 C 0 km/h
261 12-11-2008 04:05:02 7.3 C 6.95 g/m*3 7.3 C 0 km/h
262 12-11-2008 04:17:02 7.4 C 7 g/m*3 7.4 C 0 km/h
263 12-11-2008 04:29:02 7.2 C 6.91 g/m*3 7.2 C 0 km/h
264 12-11-2008 04:41:02 7.5 C 7.04 g/m*3 7.5 C 0 km/h
265 12-11-2008 04:53:02 7.7 C 7.14 g/m*3 7.7 C 0 km/h
266 12-11-2008 05:05:02 7.9 C 7.15 g/m*3 7.9 C 0 km/h
267 12-11-2008 05:17:01 7.9 C 7.15 g/m*3 7.9 C 0 km/h
268 12-11-2008 05:29:01 7.8 C 7.1 g/m*3 7.8 C 0 km/h
269 12-11-2008 05:41:02 7.6 C 7.01 g/m*3 7.6 C 0 km/h
270 12-11-2008 05:53:02 7.4 C 6.92 g/m*3 7.4 C 0 km/h
271 12-11-2008 06:05:02 7.4 C 6.92 g/m*3 7.4 C 0 km/h
272 12-11-2008 06:17:02 7.5 C 6.96 g/m*3 7.5 C 0 km/h
273 12-11-2008 06:29:02 7.8 C 6.94 g/m*3 7.8 C 0 km/h
274 12-11-2008 06:41:02 8 C 6.7 g/m*3 8 C 0 km/h
275 12-11-2008 06:53:01 8 C 6.7 g/m*3 8 C 0 km/h
Sensor: Nr:Datum:Temp:Abs-Feuchte:Windchill:Wind:
Aussen-T/F 276 12-11-2008 07:05:02 7.8 C 6.69 g/m*3 7.8 C 0 km/h
277 12-11-2008 07:17:01 7.5 C 6.56 g/m*3 7.5 C 0 km/h
278 12-11-2008 07:29:01 7.4 C 6.44 g/m*3 7.4 C 0 km/h
279 12-11-2008 07:41:01 7.2 C 6.44 g/m*3 7.2 C 0 km/h
280 12-11-2008 07:53:02 7.6 C 6.69 g/m*3 7.6 C 0 km/h
281 12-11-2008 08:05:02 7.8 C 6.61 g/m*3 7.8 C 0 km/h
282 12-11-2008 08:17:02 7.9 C 6.49 g/m*3 7.9 C 0 km/h
283 12-11-2008 08:29:02 8 C 6.45 g/m*3 8 C 0 km/h
284 12-11-2008 08:41:02 8.1 C 6.41 g/m*3 8.1 C 0 km/h
285 12-11-2008 08:53:02 7.9 C 6.49 g/m*3 7.9 C 0 km/h
286 12-11-2008 09:05:02 7.8 C 6.45 g/m*3 7.8 C 0 km/h
287 12-11-2008 09:17:02 7.6 C 6.44 g/m*3 7.6 C 0 km/h
288 12-11-2008 09:29:02 7.7 C 6.57 g/m*3 7.7 C 0 km/h
289 12-11-2008 09:41:02 8.2 C 6.7 g/m*3 8.2 C 0 km/h
290 12-11-2008 09:53:02 8.2 C 6.53 g/m*3 8.2 C 0 km/h
291 12-11-2008 10:05:01 8.2 C 6.53 g/m*3 8.2 C 0 km/h
292 12-11-2008 10:17:02 8.9 C 6.57 g/m*3 8.9 C 0 km/h
293 12-11-2008 10:29:02 9.3 C 6.38 g/m*3 9.3 C 0 km/h
294 12-11-2008 10:41:01 9.4 C 6.15 g/m*3 9.4 C 0 km/h
295 12-11-2008 10:53:02 9.6 C 6.32 g/m*3 9.6 C 0 km/h
296 12-11-2008 11:05:01 9.8 C 6.31 g/m*3 9.8 C 0 km/h
297 12-11-2008 11:17:02 10.2 C 6.38 g/m*3 10.2 C 0 km/h
298 12-11-2008 11:29:02 10.7 C 6.48 g/m*3 10.7 C 0 km/h
299 12-11-2008 11:41:01 10.6 C 6.44 g/m*3 10.6 C 0 km/h
300 12-11-2008 11:53:01 9.9 C 6.63 g/m*3 9.9 C 0 km/h
Sensor: Nr:Datum:Temp:Abs-Feuchte:Windchill:Wind:
Aussen-T/F 301 12-11-2008 12:05:01 10.4 C 6.84 g/m*3 10.4 C 0 km/h
302 12-11-2008 12:17:02 10.5 C 6.89 g/m*3 10.5 C 0 km/h
303 12-11-2008 12:29:02 10.4 C 6.65 g/m*3 10.4 C 0 km/h
304 12-11-2008 12:41:01 10.9 C 6.76 g/m*3 10.9 C 0 km/h
305 12-11-2008 12:53:01 11.2 C 6.39 g/m*3 11.2 C 0 km/h
306 12-11-2008 13:05:01 11.8 C 6.31 g/m*3 11.8 C 0 km/h
307 12-11-2008 13:17:01 11.7 C 6.38 g/m*3 11.7 C 0 km/h
308 12-11-2008 13:29:01 11.1 C 6.04 g/m*3 11.1 C 0 km/h
309 12-11-2008 13:41:01 11.5 C 6.09 g/m*3 11.5 C 0 km/h
310 12-11-2008 13:53:01 11.5 C 5.89 g/m*3 11.5 C 0 km/h
311 12-11-2008 14:05:02 11.2 C 5.88 g/m*3 11.2 C 0 km/h
312 12-11-2008 14:17:01 11.9 C 5.93 g/m*3 11.9 C 0 km/h
313 12-11-2008 14:29:01 11.7 C 5.75 g/m*3 11.7 C 0 km/h
314 12-11-2008 14:41:02 11.2 C 5.78 g/m*3 11.2 C 0 km/h
315 12-11-2008 14:53:02 10.9 C 5.97 g/m*3 10.9 C 0 km/h
316 12-11-2008 15:05:02 12 C 5.97 g/m*3 12 C 0 km/h
317 12-11-2008 15:17:01 12.3 C 5.86 g/m*3 12.3 C 0 km/h
318 12-11-2008 15:29:01 11.8 C 5.79 g/m*3 11.8 C 0 km/h
319 12-11-2008 15:41:02 11.1 C 5.84 g/m*3 11.1 C 0 km/h
320 12-11-2008 15:53:02 10.7 C 5.89 g/m*3 10.7 C 0 km/h
321 12-11-2008 16:05:02 10.8 C 5.93 g/m*3 10.8 C 0 km/h
322 12-11-2008 16:17:02 10.8 C 5.93 g/m*3 10.8 C 0 km/h
323 12-11-2008 16:29:02 10.4 C 5.88 g/m*3 10.4 C 0 km/h
324 12-11-2008 16:41:02 9.9 C 5.98 g/m*3 9.9 C 0 km/h
325 12-11-2008 16:53:02 9.6 C 5.95 g/m*3 9.6 C 0 km/h
Sensor: Nr:Datum:Temp:Abs-Feuchte:Windchill:Wind:
Aussen-T/F 326 12-11-2008 17:05:01 9.5 C 6.01 g/m*3 9.5 C 0 km/h
327 12-11-2008 17:17:02 9.2 C 6.07 g/m*3 9.2 C 0 km/h
328 12-11-2008 17:29:02 8.7 C 6.05 g/m*3 8.7 C 0 km/h
329 12-11-2008 17:41:01 8.3 C 5.98 g/m*3 8.3 C 0 km/h
330 12-11-2008 17:53:03 8.1 C 6.07 g/m*3 8.1 C 0 km/h
331 12-11-2008 18:05:02 7.8 C 6.04 g/m*3 7.8 C 0 km/h
332 12-11-2008 18:17:02 7.8 C 6.2 g/m*3 7.8 C 0 km/h
333 12-11-2008 18:29:02 7.6 C 6.2 g/m*3 7.6 C 0 km/h
334 12-11-2008 18:41:02 7.6 C 6.2 g/m*3 7.6 C 0 km/h
335 12-11-2008 18:53:03 7.8 C 6.28 g/m*3 7.8 C 0 km/h
336 12-11-2008 19:05:02 7.7 C 6.24 g/m*3 7.7 C 0 km/h
337 12-11-2008 19:17:02 7.6 C 6.2 g/m*3 7.6 C 0 km/h
338 12-11-2008 19:29:02 7.8 C 6.37 g/m*3 7.8 C 0 km/h
339 12-11-2008 19:41:02 7.7 C 6.32 g/m*3 7.7 C 0 km/h
340 12-11-2008 19:53:02 7.8 C 6.45 g/m*3 7.8 C 0 km/h
341 12-11-2008 20:05:01 7.9 C 6.41 g/m*3 7.9 C 0 km/h
342 12-11-2008 20:17:02 7.9 C 6.41 g/m*3 7.9 C 0 km/h
343 12-11-2008 20:29:02 7.8 C 6.45 g/m*3 7.8 C 0 km/h
344 12-11-2008 20:41:01 7.7 C 6.41 g/m*3 7.7 C 0 km/h
345 12-11-2008 20:53:02 7.4 C 6.28 g/m*3 7.4 C 0 km/h
346 12-11-2008 21:05:01 7.1 C 6.24 g/m*3 7.1 C 0 km/h
347 12-11-2008 21:17:02 7.1 C 6.32 g/m*3 7.1 C 0 km/h
348 12-11-2008 21:29:02 7.1 C 6.32 g/m*3 7.1 C 0 km/h
349 12-11-2008 21:41:01 7.1 C 6.32 g/m*3 7.1 C 0 km/h
350 12-11-2008 21:53:01 7.1 C 6.4 g/m*3 7.1 C 0 km/h
Sensor: Nr:Datum:Temp:Abs-Feuchte:Windchill:Wind:
Aussen-T/F 351 12-11-2008 22:05:02 7.2 C 6.44 g/m*3 7.2 C 0 km/h
352 12-11-2008 22:17:02 7.1 C 6.32 g/m*3 7.1 C 0 km/h
353 12-11-2008 22:29:02 6.8 C 6.27 g/m*3 6.8 C 0 km/h
354 12-11-2008 22:41:01 6.3 C 6.14 g/m*3 6.3 C 0 km/h
355 12-11-2008 22:53:01 6.2 C 6.18 g/m*3 6.2 C 0 km/h
356 12-11-2008 23:05:02 6 C 6.1 g/m*3 6 C 0 km/h
357 12-11-2008 23:17:01 5.7 C 6.05 g/m*3 5.7 C 0 km/h
358 12-11-2008 23:29:01 5.5 C 6.04 g/m*3 5.5 C 0 km/h
359 12-11-2008 23:41:02 5.2 C 5.92 g/m*3 5.2 C 0 km/h
360 12-11-2008 23:53:02 5 C 5.84 g/m*3 5 C 0 km/h

Legende:
   Min
   Max


Maximal/Minimal-Werte vom 17.04.2019 - 19.05.2019

Sensor Min Max Avg
Temp
(Aussen-T/F)
2.2 °C
13-05-2019  06:50:00
26.6 °C
24-04-2019  17:05:00
11.51 °C

Die Daten stammen von einer Davis Vantage Pro 2 Wetter-Station und werden unter Linux mit der Software wview2wettercgi und aufbereitet. Alle Angaben erfolgen ohne Gewähr für ihre Vollständigkeit oder Richtigkeit.
Kontakt: Rainer Krienke krienke@uni-koblenz.de . Meine Webseiten an der Uni Koblenz oder privat.
Version: $Revision: 0.78 $